sensor_id;sensor_type;location;lat;lon;timestamp;temperature;humidity
44377;DHT22;30093;0.000;0.000;2022-08-01T00:02:10;13.70;99.90
44377;DHT22;30093;0.000;0.000;2022-08-01T00:05:59;13.70;99.90
44377;DHT22;30093;0.000;0.000;2022-08-01T00:09:47;13.90;99.90
44377;DHT22;30093;0.000;0.000;2022-08-01T00:13:35;14.00;99.90
44377;DHT22;30093;0.000;0.000;2022-08-01T00:17:23;13.70;99.90
44377;DHT22;30093;0.000;0.000;2022-08-01T00:21:11;14.10;99.90
44377;DHT22;30093;0.000;0.000;2022-08-01T00:24:59;14.20;99.90
44377;DHT22;30093;0.000;0.000;2022-08-01T00:28:48;14.10;45.50
44377;DHT22;30093;0.000;0.000;2022-08-01T00:32:36;14.00;15.00
44377;DHT22;30093;0.000;0.000;2022-08-01T00:36:24;14.10;11.80
44377;DHT22;30093;0.000;0.000;2022-08-01T00:40:12;14.20;2.90
44377;DHT22;30093;0.000;0.000;2022-08-01T00:44:04;14.00;61.50
44377;DHT22;30093;0.000;0.000;2022-08-01T00:47:52;14.00;44.60
44377;DHT22;30093;0.000;0.000;2022-08-01T00:51:41;13.90;24.50
44377;DHT22;30093;0.000;0.000;2022-08-01T00:55:29;13.70;99.90
44377;DHT22;30093;0.000;0.000;2022-08-01T00:59:18;13.60;99.90
44377;DHT22;30093;0.000;0.000;2022-08-01T01:03:08;13.50;99.90
44377;DHT22;30093;0.000;0.000;2022-08-01T01:11:17;13.50;99.90
44377;DHT22;30093;0.000;0.000;2022-08-01T01:19:13;13.50;99.90
44377;DHT22;30093;0.000;0.000;2022-08-01T01:30:57;13.40;96.90
44377;DHT22;30093;0.000;0.000;2022-08-01T01:34:46;13.40;99.90
44377;DHT22;30093;0.000;0.000;2022-08-01T01:38:37;13.40;99.90
44377;DHT22;30093;0.000;0.000;2022-08-01T01:42:29;13.30;99.90
44377;DHT22;30093;0.000;0.000;2022-08-01T01:46:19;13.30;99.90
44377;DHT22;30093;0.000;0.000;2022-08-01T01:50:10;13.40;99.90
44377;DHT22;30093;0.000;0.000;2022-08-01T01:53:59;13.40;99.90
44377;DHT22;30093;0.000;0.000;2022-08-01T01:57:49;13.40;65.00
44377;DHT22;30093;0.000;0.000;2022-08-01T02:01:38;13.40;1.00
44377;DHT22;30093;0.000;0.000;2022-08-01T02:05:26;13.30;1.00
44377;DHT22;30093;0.000;0.000;2022-08-01T02:09:18;13.20;91.30
44377;DHT22;30093;0.000;0.000;2022-08-01T02:13:07;12.00;89.70
44377;DHT22;30093;0.000;0.000;2022-08-01T02:16:56;13.20;30.60
44377;DHT22;30093;0.000;0.000;2022-08-01T02:20:45;12.60;96.90
44377;DHT22;30093;0.000;0.000;2022-08-01T02:24:37;13.20;99.90
44377;DHT22;30093;0.000;0.000;2022-08-01T02:28:30;13.10;99.90
44377;DHT22;30093;0.000;0.000;2022-08-01T02:32:23;13.20;99.90
44377;DHT22;30093;0.000;0.000;2022-08-01T02:36:12;13.20;96.50
44377;DHT22;30093;0.000;0.000;2022-08-01T02:40:00;13.20;99.90
44377;DHT22;30093;0.000;0.000;2022-08-01T02:43:49;13.10;99.90
44377;DHT22;30093;0.000;0.000;2022-08-01T02:47:40;13.10;99.90
44377;DHT22;30093;0.000;0.000;2022-08-01T02:51:29;13.10;1.00
44377;DHT22;30093;0.000;0.000;2022-08-01T02:55:18;11.70;1.00
44377;DHT22;30093;0.000;0.000;2022-08-01T02:59:08;13.10;30.90
44377;DHT22;30093;0.000;0.000;2022-08-01T03:02:57;13.10;1.00
44377;DHT22;30093;0.000;0.000;2022-08-01T03:06:47;13.10;1.00
44377;DHT22;30093;0.000;0.000;2022-08-01T03:10:37;13.00;1.00
44377;DHT22;30093;0.000;0.000;2022-08-01T03:14:26;13.10;12.50
44377;DHT22;30093;0.000;0.000;2022-08-01T03:18:15;13.10;18.30
44377;DHT22;30093;0.000;0.000;2022-08-01T03:22:08;13.10;37.40
44377;DHT22;30093;0.000;0.000;2022-08-01T03:25:56;13.10;96.80
44377;DHT22;30093;0.000;0.000;2022-08-01T03:29:45;13.20;99.90
44377;DHT22;30093;0.000;0.000;2022-08-01T03:33:34;13.20;99.90
44377;DHT22;30093;0.000;0.000;2022-08-01T03:37:26;13.20;1.00
44377;DHT22;30093;0.000;0.000;2022-08-01T03:41:16;13.40;1.00
44377;DHT22;30093;0.000;0.000;2022-08-01T03:45:07;13.40;1.00
44377;DHT22;30093;0.000;0.000;2022-08-01T03:48:58;13.60;1.00
44377;DHT22;30093;0.000;0.000;2022-08-01T03:52:48;13.60;1.00
44377;DHT22;30093;0.000;0.000;2022-08-01T03:56:38;13.80;1.00
44377;DHT22;30093;0.000;0.000;2022-08-01T04:00:28;14.10;1.00
44377;DHT22;30093;0.000;0.000;2022-08-01T04:04:16;14.40;1.00
44377;DHT22;30093;0.000;0.000;2022-08-01T04:08:04;14.60;1.00
44377;DHT22;30093;0.000;0.000;2022-08-01T04:11:52;14.70;1.00
44377;DHT22;30093;0.000;0.000;2022-08-01T04:15:40;15.20;85.50
44377;DHT22;30093;0.000;0.000;2022-08-01T04:19:28;16.30;1.00
44377;DHT22;30093;0.000;0.000;2022-08-01T04:23:17;19.10;82.10
44377;DHT22;30093;0.000;0.000;2022-08-01T04:27:08;21.30;1.00
44377;DHT22;30093;0.000;0.000;2022-08-01T04:30:57;23.60;1.00
44377;DHT22;30093;0.000;0.000;2022-08-01T04:34:47;25.30;1.00
44377;DHT22;30093;0.000;0.000;2022-08-01T04:38:37;26.50;1.00
44377;DHT22;30093;0.000;0.000;2022-08-01T04:42:26;27.50;1.00
44377;DHT22;30093;0.000;0.000;2022-08-01T04:46:15;28.60;1.00
44377;DHT22;30093;0.000;0.000;2022-08-01T04:50:06;29.20;1.00
44377;DHT22;30093;0.000;0.000;2022-08-01T04:53:55;29.50;1.00
44377;DHT22;30093;0.000;0.000;2022-08-01T04:57:45;31.20;1.00
44377;DHT22;30093;0.000;0.000;2022-08-01T05:01:34;32.20;1.00
44377;DHT22;30093;0.000;0.000;2022-08-01T05:05:22;33.40;1.00
44377;DHT22;30093;0.000;0.000;2022-08-01T05:09:11;34.30;1.00
44377;DHT22;30093;0.000;0.000;2022-08-01T05:12:59;34.20;1.00
44377;DHT22;30093;0.000;0.000;2022-08-01T05:16:48;34.90;1.00
44377;DHT22;30093;0.000;0.000;2022-08-01T05:20:36;35.50;1.00
44377;DHT22;30093;0.000;0.000;2022-08-01T05:24:26;35.90;1.00
44377;DHT22;30093;0.000;0.000;2022-08-01T05:28:16;36.70;1.00
44377;DHT22;30093;0.000;0.000;2022-08-01T05:32:04;37.00;1.00
44377;DHT22;30093;0.000;0.000;2022-08-01T05:35:52;33.30;1.00
44377;DHT22;30093;0.000;0.000;2022-08-01T05:39:40;31.80;1.00
44377;DHT22;30093;0.000;0.000;2022-08-01T05:43:28;29.90;99.90
44377;DHT22;30093;0.000;0.000;2022-08-01T05:47:16;27.80;1.00
44377;DHT22;30093;0.000;0.000;2022-08-01T05:51:04;26.30;1.00
44377;DHT22;30093;0.000;0.000;2022-08-01T05:54:52;24.20;1.00
44377;DHT22;30093;0.000;0.000;2022-08-01T05:58:41;22.70;1.00
44377;DHT22;30093;0.000;0.000;2022-08-01T06:02:29;21.70;1.00
44377;DHT22;30093;0.000;0.000;2022-08-01T06:06:17;21.30;1.00
44377;DHT22;30093;0.000;0.000;2022-08-01T06:10:06;20.90;1.00
44377;DHT22;30093;0.000;0.000;2022-08-01T06:13:55;20.80;47.60
44377;DHT22;30093;0.000;0.000;2022-08-01T06:17:43;20.90;1.00
44377;DHT22;30093;0.000;0.000;2022-08-01T06:21:31;20.40;95.20
44377;DHT22;30093;0.000;0.000;2022-08-01T06:25:19;20.70;99.90
44377;DHT22;30093;0.000;0.000;2022-08-01T06:29:07;20.60;99.90
44377;DHT22;30093;0.000;0.000;2022-08-01T06:32:55;20.70;99.90
44377;DHT22;30093;0.000;0.000;2022-08-01T06:36:46;21.10;1.00
44377;DHT22;30093;0.000;0.000;2022-08-01T06:40:34;21.00;75.70
44377;DHT22;30093;0.000;0.000;2022-08-01T06:44:24;21.10;94.00
44377;DHT22;30093;0.000;0.000;2022-08-01T06:48:13;20.80;99.90
44377;DHT22;30093;0.000;0.000;2022-08-01T06:52:02;20.70;99.90
44377;DHT22;30093;0.000;0.000;2022-08-01T06:55:51;20.50;99.90
44377;DHT22;30093;0.000;0.000;2022-08-01T06:59:39;20.40;1.00
44377;DHT22;30093;0.000;0.000;2022-08-01T07:03:27;20.50;1.00
44377;DHT22;30093;0.000;0.000;2022-08-01T07:07:15;20.60;99.90
44377;DHT22;30093;0.000;0.000;2022-08-01T07:11:03;20.90;99.90
44377;DHT22;30093;0.000;0.000;2022-08-01T07:14:51;20.90;99.90
44377;DHT22;30093;0.000;0.000;2022-08-01T07:18:40;19.10;99.90
44377;DHT22;30093;0.000;0.000;2022-08-01T07:22:28;21.30;99.90
44377;DHT22;30093;0.000;0.000;2022-08-01T07:26:16;21.60;99.90
44377;DHT22;30093;0.000;0.000;2022-08-01T07:30:05;22.40;99.90
44377;DHT22;30093;0.000;0.000;2022-08-01T07:33:53;22.30;1.00
44377;DHT22;30093;0.000;0.000;2022-08-01T07:37:41;22.80;1.00
44377;DHT22;30093;0.000;0.000;2022-08-01T07:41:30;22.60;1.00
44377;DHT22;30093;0.000;0.000;2022-08-01T07:45:18;22.60;1.00
44377;DHT22;30093;0.000;0.000;2022-08-01T07:49:07;22.20;31.20
44377;DHT22;30093;0.000;0.000;2022-08-01T07:52:55;22.00;99.90
44377;DHT22;30093;0.000;0.000;2022-08-01T07:56:44;22.00;99.90
44377;DHT22;30093;0.000;0.000;2022-08-01T08:00:32;22.10;99.90
44377;DHT22;30093;0.000;0.000;2022-08-01T08:04:20;22.30;99.90
44377;DHT22;30093;0.000;0.000;2022-08-01T08:08:08;22.60;14.80
44377;DHT22;30093;0.000;0.000;2022-08-01T08:11:58;22.90;1.00
44377;DHT22;30093;0.000;0.000;2022-08-01T08:15:47;23.00;1.00
44377;DHT22;30093;0.000;0.000;2022-08-01T08:19:35;23.00;1.00
44377;DHT22;30093;0.000;0.000;2022-08-01T08:23:26;23.00;1.00
44377;DHT22;30093;0.000;0.000;2022-08-01T08:27:32;23.10;1.00
44377;DHT22;30093;0.000;0.000;2022-08-01T08:31:20;23.10;13.40
44377;DHT22;30093;0.000;0.000;2022-08-01T08:35:08;23.10;1.00
44377;DHT22;30093;0.000;0.000;2022-08-01T08:38:56;23.30;1.00
44377;DHT22;30093;0.000;0.000;2022-08-01T08:42:44;23.30;1.00
44377;DHT22;30093;0.000;0.000;2022-08-01T08:46:38;23.40;1.00
44377;DHT22;30093;0.000;0.000;2022-08-01T08:50:27;23.40;1.00
44377;DHT22;30093;0.000;0.000;2022-08-01T08:54:16;23.30;1.00
44377;DHT22;30093;0.000;0.000;2022-08-01T08:58:06;22.90;27.10
44377;DHT22;30093;0.000;0.000;2022-08-01T09:01:54;22.60;99.90
44377;DHT22;30093;0.000;0.000;2022-08-01T09:05:43;22.50;99.90
44377;DHT22;30093;0.000;0.000;2022-08-01T09:09:31;22.30;1.00
44377;DHT22;30093;0.000;0.000;2022-08-01T09:13:22;22.70;99.90
44377;DHT22;30093;0.000;0.000;2022-08-01T09:17:11;22.80;99.90
44377;DHT22;30093;0.000;0.000;2022-08-01T09:21:07;24.10;90.60
44377;DHT22;30093;0.000;0.000;2022-08-01T09:24:58;24.00;1.00
44377;DHT22;30093;0.000;0.000;2022-08-01T09:28:47;24.40;1.00
44377;DHT22;30093;0.000;0.000;2022-08-01T09:32:37;24.70;1.00
44377;DHT22;30093;0.000;0.000;2022-08-01T09:36:27;24.80;1.00
44377;DHT22;30093;0.000;0.000;2022-08-01T09:44:41;24.00;1.00
44377;DHT22;30093;0.000;0.000;2022-08-01T09:48:29;23.90;1.00
44377;DHT22;30093;0.000;0.000;2022-08-01T09:52:20;23.60;1.00
44377;DHT22;30093;0.000;0.000;2022-08-01T09:56:09;23.50;40.40
44377;DHT22;30093;0.000;0.000;2022-08-01T09:59:59;23.60;99.90
44377;DHT22;30093;0.000;0.000;2022-08-01T10:04:08;23.90;1.00
44377;DHT22;30093;0.000;0.000;2022-08-01T10:08:00;24.20;1.00
44377;DHT22;30093;0.000;0.000;2022-08-01T10:11:51;24.90;1.00
44377;DHT22;30093;0.000;0.000;2022-08-01T10:15:39;24.90;1.00
44377;DHT22;30093;0.000;0.000;2022-08-01T10:19:32;24.60;1.00
44377;DHT22;30093;0.000;0.000;2022-08-01T10:23:23;24.30;1.00
44377;DHT22;30093;0.000;0.000;2022-08-01T10:27:14;24.00;1.00
44377;DHT22;30093;0.000;0.000;2022-08-01T10:31:02;24.60;1.00
44377;DHT22;30093;0.000;0.000;2022-08-01T10:34:50;24.60;1.00
44377;DHT22;30093;0.000;0.000;2022-08-01T10:38:38;24.50;1.00
44377;DHT22;30093;0.000;0.000;2022-08-01T10:42:27;24.20;1.00
44377;DHT22;30093;0.000;0.000;2022-08-01T10:46:15;24.30;1.00
44377;DHT22;30093;0.000;0.000;2022-08-01T10:50:13;24.00;1.00
44377;DHT22;30093;0.000;0.000;2022-08-01T10:54:05;24.20;1.00
44377;DHT22;30093;0.000;0.000;2022-08-01T10:57:55;24.00;1.00
44377;DHT22;30093;0.000;0.000;2022-08-01T11:01:44;23.90;1.00
44377;DHT22;30093;0.000;0.000;2022-08-01T11:05:43;23.90;1.00
44377;DHT22;30093;0.000;0.000;2022-08-01T11:09:43;24.00;1.00
44377;DHT22;30093;0.000;0.000;2022-08-01T11:17:43;24.30;1.00
44377;DHT22;30093;0.000;0.000;2022-08-01T11:29:33;25.00;1.00
44377;DHT22;30093;0.000;0.000;2022-08-01T11:37:28;25.60;1.00
44377;DHT22;30093;0.000;0.000;2022-08-01T11:45:07;25.70;1.00
44377;DHT22;30093;0.000;0.000;2022-08-01T11:53:07;25.00;1.00
44377;DHT22;30093;0.000;0.000;2022-08-01T11:56:59;24.80;1.00
44377;DHT22;30093;0.000;0.000;2022-08-01T12:00:51;24.50;1.00
44377;DHT22;30093;0.000;0.000;2022-08-01T12:04:44;24.50;15.40
44377;DHT22;30093;0.000;0.000;2022-08-01T12:08:33;24.60;88.70
44377;DHT22;30093;0.000;0.000;2022-08-01T12:12:23;24.70;1.60
44377;DHT22;30093;0.000;0.000;2022-08-01T12:16:10;24.70;1.00
44377;DHT22;30093;0.000;0.000;2022-08-01T12:19:59;24.90;1.00
44377;DHT22;30093;0.000;0.000;2022-08-01T12:23:59;25.00;1.00
44377;DHT22;30093;0.000;0.000;2022-08-01T12:27:48;25.20;1.00
44377;DHT22;30093;0.000;0.000;2022-08-01T12:31:37;25.60;1.00
44377;DHT22;30093;0.000;0.000;2022-08-01T12:35:25;26.00;1.00
44377;DHT22;30093;0.000;0.000;2022-08-01T12:39:14;26.30;1.00
44377;DHT22;30093;0.000;0.000;2022-08-01T12:43:08;26.40;1.00
44377;DHT22;30093;0.000;0.000;2022-08-01T12:46:55;26.80;1.00
44377;DHT22;30093;0.000;0.000;2022-08-01T12:50:44;26.80;1.00
44377;DHT22;30093;0.000;0.000;2022-08-01T12:58:40;26.80;1.00
44377;DHT22;30093;0.000;0.000;2022-08-01T13:02:32;26.60;1.00
44377;DHT22;30093;0.000;0.000;2022-08-01T13:06:21;26.60;1.00
44377;DHT22;30093;0.000;0.000;2022-08-01T13:10:10;26.70;1.00
44377;DHT22;30093;0.000;0.000;2022-08-01T13:14:02;26.00;1.00
44377;DHT22;30093;0.000;0.000;2022-08-01T13:17:52;26.70;1.00
44377;DHT22;30093;0.000;0.000;2022-08-01T13:21:55;26.60;1.00
44377;DHT22;30093;0.000;0.000;2022-08-01T13:25:47;26.60;1.00
44377;DHT22;30093;0.000;0.000;2022-08-01T13:29:38;26.00;1.00
44377;DHT22;30093;0.000;0.000;2022-08-01T13:33:42;26.70;1.00
44377;DHT22;30093;0.000;0.000;2022-08-01T13:37:31;26.70;1.00
44377;DHT22;30093;0.000;0.000;2022-08-01T13:41:19;26.70;1.00
44377;DHT22;30093;0.000;0.000;2022-08-01T13:45:08;26.70;1.00
44377;DHT22;30093;0.000;0.000;2022-08-01T13:48:57;26.70;1.00
44377;DHT22;30093;0.000;0.000;2022-08-01T13:52:46;26.60;1.00
44377;DHT22;30093;0.000;0.000;2022-08-01T13:56:34;26.40;1.00
44377;DHT22;30093;0.000;0.000;2022-08-01T14:00:23;26.20;1.00
44377;DHT22;30093;0.000;0.000;2022-08-01T14:04:11;26.40;1.00
44377;DHT22;30093;0.000;0.000;2022-08-01T14:07:59;26.40;1.00
44377;DHT22;30093;0.000;0.000;2022-08-01T14:11:47;26.50;1.00
44377;DHT22;30093;0.000;0.000;2022-08-01T14:15:34;26.40;1.00
44377;DHT22;30093;0.000;0.000;2022-08-01T14:19:23;26.30;1.00
44377;DHT22;30093;0.000;0.000;2022-08-01T14:23:12;25.90;1.00
44377;DHT22;30093;0.000;0.000;2022-08-01T14:27:01;25.90;1.00
44377;DHT22;30093;0.000;0.000;2022-08-01T14:30:49;26.40;1.00
44377;DHT22;30093;0.000;0.000;2022-08-01T14:34:38;25.70;1.00
44377;DHT22;30093;0.000;0.000;2022-08-01T14:38:26;25.80;1.00
44377;DHT22;30093;0.000;0.000;2022-08-01T14:42:15;25.70;1.00
44377;DHT22;30093;0.000;0.000;2022-08-01T14:46:03;25.80;1.00
44377;DHT22;30093;0.000;0.000;2022-08-01T14:49:52;25.70;1.00
44377;DHT22;30093;0.000;0.000;2022-08-01T14:53:40;25.70;1.00
44377;DHT22;30093;0.000;0.000;2022-08-01T14:57:29;25.70;1.00
44377;DHT22;30093;0.000;0.000;2022-08-01T15:01:18;25.80;1.00
44377;DHT22;30093;0.000;0.000;2022-08-01T15:05:08;25.70;1.00
44377;DHT22;30093;0.000;0.000;2022-08-01T15:08:57;25.60;1.00
44377;DHT22;30093;0.000;0.000;2022-08-01T15:12:45;25.80;1.00
44377;DHT22;30093;0.000;0.000;2022-08-01T15:16:34;26.00;1.00
44377;DHT22;30093;0.000;0.000;2022-08-01T15:20:22;26.00;1.00
44377;DHT22;30093;0.000;0.000;2022-08-01T15:24:10;24.30;1.00
44377;DHT22;30093;0.000;0.000;2022-08-01T15:27:59;26.10;1.00
44377;DHT22;30093;0.000;0.000;2022-08-01T15:31:47;26.00;1.00
44377;DHT22;30093;0.000;0.000;2022-08-01T15:35:35;25.80;1.00
44377;DHT22;30093;0.000;0.000;2022-08-01T15:39:27;25.10;1.00
44377;DHT22;30093;0.000;0.000;2022-08-01T15:43:15;25.70;1.00
44377;DHT22;30093;0.000;0.000;2022-08-01T15:47:03;26.40;1.00
44377;DHT22;30093;0.000;0.000;2022-08-01T15:50:51;25.80;1.00
44377;DHT22;30093;0.000;0.000;2022-08-01T15:54:39;25.70;1.00
44377;DHT22;30093;0.000;0.000;2022-08-01T15:58:27;25.70;1.00
44377;DHT22;30093;0.000;0.000;2022-08-01T16:02:16;25.90;1.00
44377;DHT22;30093;0.000;0.000;2022-08-01T16:06:07;25.70;1.00
44377;DHT22;30093;0.000;0.000;2022-08-01T16:09:56;25.50;1.00
44377;DHT22;30093;0.000;0.000;2022-08-01T16:13:45;25.30;1.00
44377;DHT22;30093;0.000;0.000;2022-08-01T16:17:35;25.20;1.00
44377;DHT22;30093;0.000;0.000;2022-08-01T16:21:23;24.40;1.00
44377;DHT22;30093;0.000;0.000;2022-08-01T16:25:11;25.00;1.00
44377;DHT22;30093;0.000;0.000;2022-08-01T16:29:01;25.00;1.00
44377;DHT22;30093;0.000;0.000;2022-08-01T16:32:50;23.20;1.00
44377;DHT22;30093;0.000;0.000;2022-08-01T16:36:39;24.90;1.00
44377;DHT22;30093;0.000;0.000;2022-08-01T16:40:27;25.00;21.10
44377;DHT22;30093;0.000;0.000;2022-08-01T16:44:15;25.10;1.00
44377;DHT22;30093;0.000;0.000;2022-08-01T16:48:03;25.10;1.00
44377;DHT22;30093;0.000;0.000;2022-08-01T16:51:52;25.10;1.00
44377;DHT22;30093;0.000;0.000;2022-08-01T16:55:40;25.00;1.00
44377;DHT22;30093;0.000;0.000;2022-08-01T16:59:28;24.50;1.00
44377;DHT22;30093;0.000;0.000;2022-08-01T17:03:17;24.80;1.00
44377;DHT22;30093;0.000;0.000;2022-08-01T17:07:06;24.60;1.00
44377;DHT22;30093;0.000;0.000;2022-08-01T17:10:54;23.90;1.00
44377;DHT22;30093;0.000;0.000;2022-08-01T17:14:44;23.70;12.10
44377;DHT22;30093;0.000;0.000;2022-08-01T17:18:34;24.20;61.50
44377;DHT22;30093;0.000;0.000;2022-08-01T17:22:22;24.10;20.60
44377;DHT22;30093;0.000;0.000;2022-08-01T17:26:09;23.90;99.90
44377;DHT22;30093;0.000;0.000;2022-08-01T17:29:58;23.90;99.90
44377;DHT22;30093;0.000;0.000;2022-08-01T17:33:47;23.80;99.90
44377;DHT22;30093;0.000;0.000;2022-08-01T17:37:36;23.60;99.90
44377;DHT22;30093;0.000;0.000;2022-08-01T17:41:24;23.50;99.90
44377;DHT22;30093;0.000;0.000;2022-08-01T17:45:12;23.40;1.00
44377;DHT22;30093;0.000;0.000;2022-08-01T17:49:00;23.30;1.00
44377;DHT22;30093;0.000;0.000;2022-08-01T17:52:49;23.30;1.00
44377;DHT22;30093;0.000;0.000;2022-08-01T17:56:38;23.10;11.40
44377;DHT22;30093;0.000;0.000;2022-08-01T18:00:26;23.00;99.90
44377;DHT22;30093;0.000;0.000;2022-08-01T18:04:15;22.90;1.00
44377;DHT22;30093;0.000;0.000;2022-08-01T18:08:03;22.80;1.00
44377;DHT22;30093;0.000;0.000;2022-08-01T18:11:53;22.50;1.00
44377;DHT22;30093;0.000;0.000;2022-08-01T18:15:41;22.50;19.60
44377;DHT22;30093;0.000;0.000;2022-08-01T18:19:30;22.50;99.90
44377;DHT22;30093;0.000;0.000;2022-08-01T18:23:18;22.40;99.90
44377;DHT22;30093;0.000;0.000;2022-08-01T18:27:09;22.50;99.90
44377;DHT22;30093;0.000;0.000;2022-08-01T18:30:59;22.40;27.90
44377;DHT22;30093;0.000;0.000;2022-08-01T18:34:48;22.40;99.90
44377;DHT22;30093;0.000;0.000;2022-08-01T18:38:38;21.60;99.90
44377;DHT22;30093;0.000;0.000;2022-08-01T18:42:26;22.00;1.00
44377;DHT22;30093;0.000;0.000;2022-08-01T18:46:14;22.30;1.00
44377;DHT22;30093;0.000;0.000;2022-08-01T18:50:02;22.30;1.00
44377;DHT22;30093;0.000;0.000;2022-08-01T18:53:51;22.20;99.90
44377;DHT22;30093;0.000;0.000;2022-08-01T18:57:41;22.10;99.90
44377;DHT22;30093;0.000;0.000;2022-08-01T19:01:30;22.10;1.00
44377;DHT22;30093;0.000;0.000;2022-08-01T19:05:21;22.10;1.00
44377;DHT22;30093;0.000;0.000;2022-08-01T19:09:09;21.90;1.00
44377;DHT22;30093;0.000;0.000;2022-08-01T19:12:57;21.90;1.00
44377;DHT22;30093;0.000;0.000;2022-08-01T19:16:45;21.90;1.00
44377;DHT22;30093;0.000;0.000;2022-08-01T19:20:33;21.80;99.90
44377;DHT22;30093;0.000;0.000;2022-08-01T19:24:24;21.10;99.90
44377;DHT22;30093;0.000;0.000;2022-08-01T19:28:12;21.80;1.00
44377;DHT22;30093;0.000;0.000;2022-08-01T19:32:02;21.40;1.00
44377;DHT22;30093;0.000;0.000;2022-08-01T19:35:52;21.70;99.90
44377;DHT22;30093;0.000;0.000;2022-08-01T19:39:41;21.70;1.00
44377;DHT22;30093;0.000;0.000;2022-08-01T19:43:31;21.60;1.00
44377;DHT22;30093;0.000;0.000;2022-08-01T19:47:22;21.40;1.00
44377;DHT22;30093;0.000;0.000;2022-08-01T19:51:11;21.50;1.00
44377;DHT22;30093;0.000;0.000;2022-08-01T19:55:01;21.40;20.10
44377;DHT22;30093;0.000;0.000;2022-08-01T19:58:50;21.30;1.00
44377;DHT22;30093;0.000;0.000;2022-08-01T20:02:40;20.30;11.50
44377;DHT22;30093;0.000;0.000;2022-08-01T20:06:29;21.10;99.90
44377;DHT22;30093;0.000;0.000;2022-08-01T20:10:20;21.00;99.90
44377;DHT22;30093;0.000;0.000;2022-08-01T20:14:10;20.80;99.90
44377;DHT22;30093;0.000;0.000;2022-08-01T20:18:00;21.10;1.00
44377;DHT22;30093;0.000;0.000;2022-08-01T20:21:49;21.00;26.90
44377;DHT22;30093;0.000;0.000;2022-08-01T20:25:39;21.00;99.90
44377;DHT22;30093;0.000;0.000;2022-08-01T20:29:29;20.90;99.90
44377;DHT22;30093;0.000;0.000;2022-08-01T20:33:17;20.80;99.90
44377;DHT22;30093;0.000;0.000;2022-08-01T20:37:06;20.80;1.00
44377;DHT22;30093;0.000;0.000;2022-08-01T20:40:55;20.70;1.00
44377;DHT22;30093;0.000;0.000;2022-08-01T20:44:46;20.60;1.00
44377;DHT22;30093;0.000;0.000;2022-08-01T20:48:36;20.60;1.00
44377;DHT22;30093;0.000;0.000;2022-08-01T20:52:26;20.50;1.00
44377;DHT22;30093;0.000;0.000;2022-08-01T20:56:15;20.40;1.00
44377;DHT22;30093;0.000;0.000;2022-08-01T21:00:04;20.40;1.00
44377;DHT22;30093;0.000;0.000;2022-08-01T21:07:51;20.30;1.00
44377;DHT22;30093;0.000;0.000;2022-08-01T21:11:46;20.20;1.00
44377;DHT22;30093;0.000;0.000;2022-08-01T21:15:40;20.10;99.90
44377;DHT22;30093;0.000;0.000;2022-08-01T21:19:29;19.40;1.00
44377;DHT22;30093;0.000;0.000;2022-08-01T21:23:22;19.90;1.00
44377;DHT22;30093;0.000;0.000;2022-08-01T21:27:14;19.90;1.00
44377;DHT22;30093;0.000;0.000;2022-08-01T21:31:04;19.80;99.90
44377;DHT22;30093;0.000;0.000;2022-08-01T21:34:53;19.80;99.90
44377;DHT22;30093;0.000;0.000;2022-08-01T21:38:43;19.70;99.90
44377;DHT22;30093;0.000;0.000;2022-08-01T21:42:33;19.70;99.90
44377;DHT22;30093;0.000;0.000;2022-08-01T21:46:23;19.60;1.00
44377;DHT22;30093;0.000;0.000;2022-08-01T21:50:13;19.70;1.00
44377;DHT22;30093;0.000;0.000;2022-08-01T22:02:06;19.40;1.00
44377;DHT22;30093;0.000;0.000;2022-08-01T22:05:56;19.30;1.00
44377;DHT22;30093;0.000;0.000;2022-08-01T22:09:47;19.20;1.00
44377;DHT22;30093;0.000;0.000;2022-08-01T22:13:36;19.00;1.00
44377;DHT22;30093;0.000;0.000;2022-08-01T22:17:24;19.10;1.00
44377;DHT22;30093;0.000;0.000;2022-08-01T22:21:12;19.00;1.00
44377;DHT22;30093;0.000;0.000;2022-08-01T22:25:01;19.00;1.00
44377;DHT22;30093;0.000;0.000;2022-08-01T22:28:49;19.00;1.00
44377;DHT22;30093;0.000;0.000;2022-08-01T22:32:39;18.90;1.00
44377;DHT22;30093;0.000;0.000;2022-08-01T22:36:29;18.60;1.00
44377;DHT22;30093;0.000;0.000;2022-08-01T22:40:17;18.80;1.00
44377;DHT22;30093;0.000;0.000;2022-08-01T22:48:09;18.80;8.30
44377;DHT22;30093;0.000;0.000;2022-08-01T22:52:03;19.00;47.20
44377;DHT22;30093;0.000;0.000;2022-08-01T22:55:51;18.80;57.70
44377;DHT22;30093;0.000;0.000;2022-08-01T23:00:00;18.80;95.00
44377;DHT22;30093;0.000;0.000;2022-08-01T23:03:48;18.80;99.00
44377;DHT22;30093;0.000;0.000;2022-08-01T23:07:38;18.80;99.90
44377;DHT22;30093;0.000;0.000;2022-08-01T23:11:26;18.80;72.30
44377;DHT22;30093;0.000;0.000;2022-08-01T23:15:14;18.00;42.60
44377;DHT22;30093;0.000;0.000;2022-08-01T23:19:03;17.70;47.10
44377;DHT22;30093;0.000;0.000;2022-08-01T23:22:51;18.90;1.00
44377;DHT22;30093;0.000;0.000;2022-08-01T23:26:40;18.90;2.60
44377;DHT22;30093;0.000;0.000;2022-08-01T23:30:30;18.80;27.10
44377;DHT22;30093;0.000;0.000;2022-08-01T23:34:19;18.80;54.90
44377;DHT22;30093;0.000;0.000;2022-08-01T23:38:07;18.80;57.90
44377;DHT22;30093;0.000;0.000;2022-08-01T23:41:57;18.70;36.70
44377;DHT22;30093;0.000;0.000;2022-08-01T23:45:44;18.70;57.20
44377;DHT22;30093;0.000;0.000;2022-08-01T23:49:32;17.60;50.70
44377;DHT22;30093;0.000;0.000;2022-08-01T23:53:21;18.70;38.20
44377;DHT22;30093;0.000;0.000;2022-08-01T23:57:09;18.60;30.50
